createdAt,value
2018-09-22T00:00:09.925Z,68.19
2018-09-22T00:01:10.275Z,68.31
2018-09-22T00:02:10.464Z,67.96
2018-09-22T00:03:10.795Z,68.44
2018-09-22T00:04:11.039Z,68.57
2018-09-22T00:05:11.252Z,67.41
2018-09-22T00:06:10.445Z,67.18
2018-09-22T00:07:11.724Z,67.87
2018-09-22T00:08:12.152Z,67.92
2018-09-22T00:09:12.336Z,68.02
2018-09-22T00:10:12.604Z,68.59
2018-09-22T00:11:12.855Z,68.82
2018-09-22T00:12:13.104Z,69.39
2018-09-22T00:13:13.338Z,70.07
2018-09-22T00:14:14.030Z,69.82
2018-09-22T00:15:14.749Z,69.85
2018-09-22T00:16:15.012Z,70.32
2018-09-22T00:17:15.374Z,70.07
2018-09-22T00:17:23.700Z,70.03
2018-09-22T00:18:25.142Z,70.04
2018-09-22T00:19:25.392Z,70.29
2018-09-22T00:20:25.753Z,70.54
2018-09-22T00:21:25.883Z,70.25
2018-09-22T00:22:26.142Z,70.25
2018-09-22T00:23:26.280Z,70.67
2018-09-22T00:24:26.605Z,71.29
2018-09-22T00:25:26.933Z,70.89
2018-09-22T00:26:27.932Z,70.45
2018-09-22T00:27:28.249Z,70.92
2018-09-22T00:28:28.440Z,71.10
2018-09-22T00:29:28.675Z,70.95
2018-09-22T00:30:28.960Z,71.17
2018-09-22T00:31:29.138Z,72.60
2018-09-22T00:32:29.434Z,72.52
2018-09-22T00:33:29.722Z,72.29
2018-09-22T00:34:29.863Z,72.89
2018-09-22T00:35:30.188Z,72.84
2018-09-22T00:36:30.509Z,73.25
2018-09-22T00:37:30.740Z,73.36
2018-09-22T00:38:31.020Z,72.98
2018-09-22T00:39:31.270Z,72.59
2018-09-22T00:40:31.500Z,72.74
2018-09-22T00:41:31.677Z,72.10
2018-09-22T00:42:32.077Z,72.61
2018-09-22T00:43:32.374Z,71.65
2018-09-22T00:44:32.609Z,72.12
2018-09-22T00:45:32.793Z,72.03
2018-09-22T00:46:33.035Z,71.39
2018-09-22T00:47:33.312Z,71.92
2018-09-22T00:48:33.560Z,72.97
2018-09-22T00:49:33.891Z,73.20
2018-09-22T00:50:34.212Z,72.66
2018-09-22T00:51:34.606Z,73.09
2018-09-22T00:52:34.838Z,73.89
2018-09-22T00:53:35.079Z,74.07
2018-09-22T00:54:35.367Z,73.68
2018-09-22T00:55:35.666Z,73.05
2018-09-22T00:56:36.234Z,73.08
2018-09-22T00:57:36.577Z,72.95
2018-09-22T00:58:36.851Z,73.14
2018-09-22T00:58:45.299Z,72.38
2018-09-22T00:59:46.519Z,72.34
2018-09-22T01:00:46.690Z,72.49
2018-09-22T01:01:46.893Z,73.00
2018-09-22T01:02:47.096Z,72.83
2018-09-22T01:03:47.389Z,74.41
2018-09-22T01:04:47.826Z,72.91
2018-09-22T01:05:48.021Z,72.56
2018-09-22T01:06:48.262Z,74.56
2018-09-22T01:07:48.572Z,72.80
2018-09-22T01:08:48.801Z,74.07
2018-09-22T01:09:48.992Z,73.78
2018-09-22T01:10:49.241Z,72.16
2018-09-22T01:11:49.750Z,72.14
2018-09-22T01:12:50.066Z,72.26
2018-09-22T01:13:50.302Z,72.11
2018-09-22T01:14:50.454Z,72.22
2018-09-22T01:15:50.768Z,72.38
2018-09-22T01:16:50.543Z,71.95
2018-09-22T01:17:51.854Z,72.46
2018-09-22T01:18:52.132Z,72.47
2018-09-22T01:19:52.348Z,72.08
2018-09-22T01:20:52.774Z,71.63
2018-09-22T01:21:53.306Z,72.04
2018-09-22T01:22:53.610Z,71.35
2018-09-22T01:23:53.940Z,71.30
2018-09-22T01:24:54.271Z,70.72
2018-09-22T01:25:54.615Z,70.89
2018-09-22T01:26:55.109Z,70.54
2018-09-22T01:27:55.646Z,70.47
2018-09-22T01:28:55.933Z,69.97
2018-09-22T01:29:56.187Z,70.72
2018-09-22T01:30:56.372Z,71.13
2018-09-22T01:31:56.607Z,70.93
2018-09-22T01:32:56.820Z,71.12
2018-09-22T01:33:57.060Z,70.80
2018-09-22T01:34:57.264Z,70.84
2018-09-22T01:35:57.454Z,71.42
2018-09-22T01:36:57.660Z,70.58
2018-09-22T01:37:58.262Z,70.92
2018-09-22T01:38:58.559Z,71.02
2018-09-22T01:39:58.786Z,71.49
2018-09-22T01:40:59.018Z,71.71
2018-09-22T01:41:58.219Z,71.62
2018-09-22T01:42:59.531Z,72.15
2018-09-22T01:43:59.760Z,72.04
2018-09-22T01:45:00.054Z,72.31
2018-09-22T01:45:59.234Z,72.30
2018-09-22T01:46:07.275Z,72.10
2018-09-22T01:47:08.521Z,72.07
2018-09-22T01:48:08.750Z,72.19
2018-09-22T01:49:08.997Z,72.40
2018-09-22T01:50:09.209Z,72.86
2018-09-22T01:51:09.457Z,72.70
2018-09-22T01:52:09.718Z,72.69
2018-09-22T01:53:08.989Z,72.66
2018-09-22T01:54:10.204Z,72.59
2018-09-22T01:55:10.416Z,73.33
2018-09-22T01:56:10.704Z,72.93
2018-09-22T01:57:10.927Z,72.93
2018-09-22T01:58:11.173Z,72.69
2018-09-22T01:59:11.389Z,72.71
2018-09-22T02:00:11.701Z,72.75
2018-09-22T02:01:12.537Z,72.77
2018-09-22T02:02:12.713Z,73.54
2018-09-22T02:03:12.886Z,73.38
2018-09-22T02:04:13.161Z,73.41
2018-09-22T02:05:13.434Z,73.35
2018-09-22T02:06:14.268Z,73.87
2018-09-22T02:07:14.421Z,74.21
2018-09-22T02:08:15.223Z,74.63
2018-09-22T02:09:15.572Z,74.62
2018-09-22T02:10:15.776Z,74.71
2018-09-22T02:11:16.140Z,74.49
2018-09-22T02:12:16.387Z,74.52
2018-09-22T02:13:16.675Z,74.35
2018-09-22T02:14:16.980Z,74.25
2018-09-22T02:15:17.203Z,74.36
2018-09-22T02:16:17.426Z,74.32
2018-09-22T02:17:17.700Z,74.31
2018-09-22T02:18:18.053Z,74.71
2018-09-22T02:19:18.553Z,74.67
2018-09-22T02:20:18.765Z,74.82
2018-09-22T02:21:18.990Z,74.80
2018-09-22T02:22:19.181Z,74.91
2018-09-22T02:23:19.433Z,74.99
2018-09-22T02:24:19.844Z,74.84
2018-09-22T02:25:20.265Z,74.87
2018-09-22T02:26:20.467Z,74.85
2018-09-22T02:27:20.610Z,75.00
2018-09-22T02:28:20.800Z,74.75
2018-09-22T02:29:20.991Z,74.76
2018-09-22T02:29:29.037Z,74.66
2018-09-22T02:30:30.186Z,74.67
2018-09-22T02:31:30.394Z,74.79
2018-09-22T02:32:30.555Z,74.79
2018-09-22T02:33:30.915Z,74.72
2018-09-22T02:34:31.149Z,74.84
2018-09-22T02:35:31.552Z,74.93
2018-09-22T02:36:31.865Z,74.72
2018-09-22T02:37:32.167Z,74.90
2018-09-22T02:38:32.439Z,75.04
2018-09-22T02:39:32.634Z,74.78
2018-09-22T02:40:32.851Z,74.71
2018-09-22T02:41:33.099Z,74.98
2018-09-22T02:42:33.289Z,74.81
2018-09-22T02:43:33.644Z,74.83
2018-09-22T02:44:33.839Z,74.93
2018-09-22T02:45:34.053Z,74.95
2018-09-22T02:46:34.277Z,74.86
2018-09-22T02:47:34.527Z,75.15
2018-09-22T02:48:34.837Z,74.97
2018-09-22T02:49:35.102Z,75.02
2018-09-22T02:50:35.363Z,74.98
2018-09-22T02:51:35.729Z,75.13
2018-09-22T02:52:36.201Z,74.92
2018-09-22T02:53:36.559Z,75.08
2018-09-22T02:54:36.838Z,75.04
2018-09-22T02:55:37.118Z,75.37
2018-09-22T02:56:37.344Z,75.43
2018-09-22T02:57:37.598Z,75.51
2018-09-22T02:58:38.483Z,75.76
2018-09-22T02:59:38.677Z,75.98
2018-09-22T03:00:38.940Z,75.84
2018-09-22T03:01:39.229Z,76.03
2018-09-22T03:02:39.428Z,75.95
2018-09-22T03:03:39.650Z,75.92
2018-09-22T03:04:40.051Z,76.05
2018-09-22T03:05:40.301Z,75.95
2018-09-22T03:06:40.579Z,75.90
2018-09-22T03:07:39.720Z,76.10
2018-09-22T03:08:41.042Z,76.04
2018-09-22T03:09:40.159Z,75.86
2018-09-22T03:10:40.520Z,75.92
2018-09-22T03:11:42.333Z,76.16
2018-09-22T03:12:42.530Z,75.87
2018-09-22T03:13:42.764Z,76.14
2018-09-22T03:13:51.090Z,76.40
2018-09-22T03:14:52.362Z,76.37
2018-09-22T03:15:53.211Z,76.49
2018-09-22T03:16:53.653Z,76.45
2018-09-22T03:17:53.985Z,76.37
2018-09-22T03:18:54.373Z,76.43
2018-09-22T03:19:54.723Z,76.41
2018-09-22T03:20:55.172Z,76.60
2018-09-22T03:21:55.404Z,76.79
2018-09-22T03:22:55.783Z,76.64
2018-09-22T03:23:56.150Z,76.71
2018-09-22T03:24:56.402Z,76.92
2018-09-22T03:25:56.621Z,76.71
2018-09-22T03:26:56.845Z,76.89
2018-09-22T03:27:57.035Z,76.83
2018-09-22T03:28:57.240Z,77.31
2018-09-22T03:29:57.624Z,77.44
2018-09-22T03:30:57.906Z,77.57
2018-09-22T03:31:58.366Z,77.77
2018-09-22T03:32:58.549Z,77.11
2018-09-22T03:33:57.759Z,77.36
2018-09-22T03:34:59.257Z,77.34
2018-09-22T03:35:59.424Z,77.52
2018-09-22T03:36:59.957Z,77.66
2018-09-22T03:38:00.224Z,77.29
2018-09-22T03:39:00.479Z,77.76
2018-09-22T03:40:00.836Z,78.06
2018-09-22T03:41:00.987Z,78.00
2018-09-22T03:42:01.405Z,78.03
2018-09-22T03:43:01.774Z,77.84
2018-09-22T03:44:01.978Z,78.19
2018-09-22T03:45:02.232Z,78.48
2018-09-22T03:46:02.484Z,78.04
2018-09-22T03:47:02.710Z,78.27
2018-09-22T03:48:03.077Z,78.34
2018-09-22T03:49:03.277Z,78.29
2018-09-22T03:50:03.388Z,78.22
2018-09-22T03:51:03.841Z,78.34
2018-09-22T03:52:04.135Z,78.33
2018-09-22T03:53:04.533Z,78.42
2018-09-22T03:54:05.369Z,78.42
2018-09-22T03:55:05.681Z,78.48
2018-09-22T03:56:05.934Z,78.50
2018-09-22T03:57:06.322Z,78.55
2018-09-22T03:58:06.578Z,78.51
2018-09-22T03:58:14.616Z,78.67
2018-09-22T03:59:15.780Z,78.62
2018-09-22T04:00:16.097Z,78.62
2018-09-22T04:01:16.429Z,78.52
2018-09-22T04:02:16.663Z,78.79
2018-09-22T04:03:16.881Z,78.37
2018-09-22T04:04:17.136Z,78.58
2018-09-22T04:05:17.322Z,78.81
2018-09-22T04:06:18.170Z,78.71
2018-09-22T04:07:18.518Z,78.60
2018-09-22T04:08:18.712Z,78.83
2018-09-22T04:09:17.902Z,78.74
2018-09-22T04:10:19.162Z,78.67
2018-09-22T04:11:19.371Z,78.93
2018-09-22T04:12:19.582Z,78.82
2018-09-22T04:13:19.778Z,78.40
2018-09-22T04:14:20.219Z,78.37
2018-09-22T04:15:20.458Z,78.29
2018-09-22T04:16:20.763Z,78.26
2018-09-22T04:17:21.147Z,78.28
2018-09-22T04:18:21.358Z,78.54
2018-09-22T04:19:21.681Z,78.42
2018-09-22T04:20:21.882Z,78.33
2018-09-22T04:21:22.099Z,78.61
2018-09-22T04:22:22.264Z,78.24
2018-09-22T04:23:22.511Z,78.20
2018-09-22T04:24:22.946Z,78.21
2018-09-22T04:25:23.141Z,78.07
2018-09-22T04:26:23.368Z,78.16
2018-09-22T04:27:23.710Z,78.37
2018-09-22T04:28:23.986Z,78.33
2018-09-22T04:29:24.289Z,78.30
2018-09-22T04:30:25.041Z,78.04
2018-09-22T04:31:25.295Z,78.20
2018-09-22T04:32:25.646Z,78.23
2018-09-22T04:33:25.935Z,78.44
2018-09-22T04:34:25.116Z,78.36
2018-09-22T04:35:26.325Z,78.69
2018-09-22T04:36:26.777Z,78.66
2018-09-22T04:37:27.016Z,78.43
2018-09-22T04:38:27.269Z,78.49
2018-09-22T04:39:27.469Z,78.53
2018-09-22T04:40:28.422Z,78.39
2018-09-22T04:41:28.866Z,78.47
2018-09-22T04:42:29.096Z,78.32
2018-09-22T04:43:29.312Z,78.13
2018-09-22T04:43:37.719Z,78.34
2018-09-22T04:44:38.973Z,78.37
2018-09-22T04:45:39.515Z,78.30
2018-09-22T04:46:40.207Z,78.30
2018-09-22T04:47:40.459Z,78.40
2018-09-22T04:48:40.644Z,78.43
2018-09-22T04:49:40.878Z,78.67
2018-09-22T04:50:41.104Z,78.56
2018-09-22T04:51:41.341Z,78.72
2018-09-22T04:52:41.631Z,78.68
2018-09-22T04:53:41.865Z,78.91
2018-09-22T04:54:42.086Z,78.87
2018-09-22T04:55:42.367Z,79.13
2018-09-22T04:56:42.602Z,78.81
2018-09-22T04:57:42.814Z,78.57
2018-09-22T04:58:42.997Z,78.74
2018-09-22T04:59:43.321Z,78.37
2018-09-22T05:00:42.527Z,78.73
2018-09-22T05:01:43.827Z,79.08
2018-09-22T05:02:44.246Z,79.07
2018-09-22T05:03:44.507Z,79.09
2018-09-22T05:04:44.702Z,79.14
2018-09-22T05:05:44.951Z,79.24
2018-09-22T05:06:45.197Z,79.16
2018-09-22T05:07:45.462Z,79.26
2018-09-22T05:08:45.737Z,79.11
2018-09-22T05:09:45.994Z,79.30
2018-09-22T05:10:46.168Z,79.30
2018-09-22T05:11:46.400Z,78.96
2018-09-22T05:12:45.631Z,79.04
2018-09-22T05:13:46.915Z,78.90
2018-09-22T05:14:47.169Z,79.13
2018-09-22T05:15:47.470Z,79.29
2018-09-22T05:16:47.720Z,79.11
2018-09-22T05:17:48.094Z,79.16
2018-09-22T05:18:48.351Z,79.19
2018-09-22T05:19:48.620Z,79.24
2018-09-22T05:20:48.865Z,79.30
2018-09-22T05:21:49.079Z,79.12
2018-09-22T05:22:49.262Z,79.16
2018-09-22T05:23:49.693Z,79.56
2018-09-22T05:24:49.960Z,79.20
2018-09-22T05:25:49.324Z,79.35
2018-09-22T05:26:50.529Z,79.36
2018-09-22T05:27:50.681Z,79.20
2018-09-22T05:28:50.906Z,79.45
2018-09-22T05:29:51.118Z,79.59
2018-09-22T05:29:59.554Z,79.59
2018-09-22T05:31:00.715Z,79.61
2018-09-22T05:32:01.001Z,79.67
2018-09-22T05:33:01.219Z,79.71
2018-09-22T05:34:01.484Z,79.93
2018-09-22T05:35:01.861Z,79.79
2018-09-22T05:36:02.132Z,79.91
2018-09-22T05:37:02.655Z,79.69
2018-09-22T05:38:02.909Z,79.69
2018-09-22T05:39:03.255Z,79.66
2018-09-22T05:40:03.702Z,79.76
2018-09-22T05:41:04.130Z,80.00
2018-09-22T05:42:04.927Z,79.46
2018-09-22T05:43:05.138Z,79.58
2018-09-22T05:44:05.468Z,79.46
2018-09-22T05:45:05.730Z,79.37
2018-09-22T05:46:06.104Z,79.49
2018-09-22T05:47:06.266Z,79.77
2018-09-22T05:48:06.552Z,79.86
2018-09-22T05:49:07.059Z,79.58
2018-09-22T05:50:07.282Z,79.46
2018-09-22T05:51:07.617Z,79.50
2018-09-22T05:52:07.841Z,79.39
2018-09-22T05:53:08.302Z,79.60
2018-09-22T05:54:08.522Z,79.96
2018-09-22T05:55:08.772Z,80.06
2018-09-22T05:56:09.402Z,79.89
2018-09-22T05:57:09.575Z,79.86
2018-09-22T05:58:09.973Z,79.94
2018-09-22T05:59:09.204Z,79.98
2018-09-22T06:00:10.417Z,80.36
2018-09-22T06:01:10.629Z,80.07
2018-09-22T06:02:10.856Z,79.99
2018-09-22T06:03:11.079Z,79.69
2018-09-22T06:04:11.422Z,79.68
2018-09-22T06:05:11.642Z,79.28
2018-09-22T06:06:11.906Z,79.27
2018-09-22T06:07:12.100Z,79.33
2018-09-22T06:08:12.389Z,79.40
2018-09-22T06:09:12.648Z,79.08
2018-09-22T06:10:12.916Z,78.77
2018-09-22T06:11:13.176Z,78.74
2018-09-22T06:12:13.387Z,78.93
2018-09-22T06:13:13.650Z,79.01
2018-09-22T06:14:14.049Z,78.82
2018-09-22T06:14:22.406Z,78.57
2018-09-22T06:15:23.714Z,78.59
2018-09-22T06:16:23.941Z,79.03
2018-09-22T06:17:24.182Z,78.77
2018-09-22T06:18:24.453Z,78.65
2018-09-22T06:19:23.801Z,78.73
2018-09-22T06:20:25.101Z,78.59
2018-09-22T06:21:25.445Z,78.44
2018-09-22T06:22:25.649Z,78.39
2018-09-22T06:23:26.017Z,78.13
2018-09-22T06:24:25.270Z,78.48
2018-09-22T06:25:26.493Z,78.12
2018-09-22T06:26:26.914Z,77.66
2018-09-22T06:27:27.142Z,78.06
2018-09-22T06:28:27.416Z,78.12
2018-09-22T06:29:27.759Z,77.96
2018-09-22T06:30:28.217Z,78.19
2018-09-22T06:31:28.567Z,78.25
2018-09-22T06:32:28.874Z,78.42
2018-09-22T06:33:29.144Z,78.16
2018-09-22T06:34:29.468Z,78.03
2018-09-22T06:35:29.825Z,78.04
2018-09-22T06:36:30.276Z,77.58
2018-09-22T06:37:30.716Z,77.91
2018-09-22T06:38:30.043Z,77.89
2018-09-22T06:39:31.423Z,77.83
2018-09-22T06:40:31.891Z,77.82
2018-09-22T06:41:32.302Z,77.93
2018-09-22T06:42:32.648Z,78.06
2018-09-22T06:43:32.855Z,78.04
2018-09-22T06:44:33.181Z,77.99
2018-09-22T06:45:33.336Z,77.77
2018-09-22T06:46:33.639Z,77.85
2018-09-22T06:47:33.961Z,77.91
2018-09-22T06:48:34.197Z,77.89
2018-09-22T06:49:34.481Z,77.90
2018-09-22T06:50:34.783Z,77.95
2018-09-22T06:51:34.971Z,77.71
2018-09-22T06:52:35.249Z,77.77
2018-09-22T06:53:35.451Z,77.56
2018-09-22T06:54:35.689Z,77.67
2018-09-22T06:55:35.902Z,77.51
2018-09-22T06:56:36.123Z,77.62
2018-09-22T06:57:36.598Z,77.30
2018-09-22T06:58:37.002Z,77.27
2018-09-22T06:59:37.309Z,77.14
2018-09-22T07:00:37.587Z,77.22
2018-09-22T07:00:45.983Z,77.34
2018-09-22T07:01:46.659Z,77.34
2018-09-22T07:02:47.133Z,77.51
2018-09-22T07:03:47.392Z,77.17
2018-09-22T07:04:47.749Z,77.27
2018-09-22T07:05:48.047Z,77.46
2018-09-22T07:06:48.488Z,77.30
2018-09-22T07:07:48.786Z,77.50
2018-09-22T07:08:49.207Z,77.42
2018-09-22T07:09:49.491Z,77.05
2018-09-22T07:10:49.761Z,77.13
2018-09-22T07:11:49.999Z,76.96
2018-09-22T07:12:50.581Z,77.01
2018-09-22T07:13:51.557Z,76.71
2018-09-22T07:14:50.685Z,76.77
2018-09-22T07:15:52.059Z,76.63
2018-09-22T07:16:52.297Z,76.55
2018-09-22T07:17:52.754Z,76.59
2018-09-22T07:18:53.230Z,76.62
2018-09-22T07:19:53.504Z,76.52
2018-09-22T07:20:54.072Z,76.13
2018-09-22T07:21:54.467Z,76.19
2018-09-22T07:22:54.672Z,75.92
2018-09-22T07:23:55.216Z,75.99
2018-09-22T07:24:55.492Z,75.86
2018-09-22T07:25:55.946Z,75.50
2018-09-22T07:26:56.255Z,75.86
2018-09-22T07:27:56.511Z,75.97
2018-09-22T07:28:56.967Z,75.77
2018-09-22T07:29:57.345Z,75.72
2018-09-22T07:30:57.807Z,74.99
2018-09-22T07:31:56.875Z,75.12
2018-09-22T07:32:57.156Z,75.02
2018-09-22T07:33:58.334Z,75.21
2018-09-22T07:34:58.481Z,75.08
2018-09-22T07:35:58.756Z,74.84
2018-09-22T07:36:58.922Z,74.89
2018-09-22T07:37:59.083Z,74.47
2018-09-22T07:38:59.398Z,74.31
2018-09-22T07:39:59.686Z,73.53
2018-09-22T07:40:59.924Z,73.55
2018-09-22T07:42:00.218Z,73.13
2018-09-22T07:42:59.475Z,72.54
2018-09-22T07:44:00.710Z,72.45
2018-09-22T07:45:00.897Z,72.48
2018-09-22T07:46:01.082Z,72.15
2018-09-22T07:46:09.552Z,72.07
2018-09-22T07:47:10.672Z,72.06
2018-09-22T07:48:10.962Z,71.46
2018-09-22T07:49:11.165Z,71.38
2018-09-22T07:50:11.389Z,70.52
2018-09-22T07:51:11.706Z,69.36
2018-09-22T07:52:12.096Z,68.60
2018-09-22T07:53:12.515Z,68.26
2018-09-22T07:54:12.686Z,68.79
2018-09-22T07:55:12.986Z,67.90
2018-09-22T07:56:13.451Z,68.19
2018-09-22T07:57:13.722Z,67.73
2018-09-22T07:58:13.297Z,68.01
2018-09-22T07:59:14.566Z,67.36
2018-09-22T08:00:14.764Z,67.31
2018-09-22T08:01:15.124Z,66.65
2018-09-22T08:02:15.396Z,66.16
2018-09-22T08:03:15.950Z,65.46
2018-09-22T08:04:16.913Z,65.11
2018-09-22T08:05:17.387Z,64.67
2018-09-22T08:06:17.632Z,65.12
2018-09-22T08:07:17.924Z,64.84
2018-09-22T08:08:18.139Z,64.80
2018-09-22T08:09:18.578Z,64.35
2018-09-22T08:10:18.865Z,64.26
2018-09-22T08:11:19.139Z,64.35
2018-09-22T08:12:19.326Z,63.93
2018-09-22T08:13:19.671Z,64.56
2018-09-22T08:14:20.170Z,63.85
2018-09-22T08:15:20.408Z,63.84
2018-09-22T08:16:20.852Z,64.42
2018-09-22T08:17:21.142Z,63.73
2018-09-22T08:18:21.564Z,63.68
2018-09-22T08:19:21.836Z,63.62
2018-09-22T08:20:22.090Z,64.95
2018-09-22T08:21:22.539Z,64.92
2018-09-22T08:22:22.813Z,65.11
2018-09-22T08:23:23.157Z,65.42
2018-09-22T08:24:23.686Z,66.04
2018-09-22T08:25:24.094Z,66.87
2018-09-22T08:26:24.012Z,66.89
2018-09-22T08:27:25.382Z,67.20
2018-09-22T08:28:25.636Z,67.42
2018-09-22T08:29:26.211Z,66.94
2018-09-22T08:30:26.561Z,66.69
2018-09-22T08:31:25.701Z,66.28
2018-09-22T08:32:26.944Z,66.07
2018-09-22T08:32:35.287Z,66.00
2018-09-22T08:33:36.504Z,65.98
2018-09-22T08:34:36.780Z,65.13
2018-09-22T08:35:37.033Z,64.39
2018-09-22T08:36:37.544Z,64.13
2018-09-22T08:37:36.510Z,63.64
2018-09-22T08:38:37.784Z,63.40
2018-09-22T08:39:38.486Z,62.19
2018-09-22T08:40:38.949Z,61.88
2018-09-22T08:41:39.219Z,61.33
2018-09-22T08:42:39.717Z,61.87
2018-09-22T08:43:40.669Z,62.51
2018-09-22T08:44:40.155Z,63.57
2018-09-22T08:45:41.505Z,63.30
2018-09-22T08:46:41.833Z,63.84
2018-09-22T08:47:41.683Z,64.10
2018-09-22T08:48:42.110Z,65.60
2018-09-22T08:49:43.537Z,65.83
2018-09-22T08:50:43.100Z,66.08
2018-09-22T08:51:44.438Z,66.05
2018-09-22T08:52:43.882Z,66.54
2018-09-22T08:53:45.207Z,67.19
2018-09-22T08:54:45.805Z,67.44
2018-09-22T08:55:45.896Z,67.78
2018-09-22T08:56:46.519Z,67.90
2018-09-22T08:57:45.992Z,68.25
2018-09-22T08:58:46.923Z,67.63
2018-09-22T08:59:47.573Z,67.90
2018-09-22T09:00:47.953Z,67.36
2018-09-22T09:01:48.016Z,66.96
2018-09-22T09:02:49.624Z,66.58
2018-09-22T09:03:50.364Z,66.17
2018-09-22T09:04:49.396Z,66.46
2018-09-22T09:05:50.152Z,65.94
2018-09-22T09:06:50.511Z,65.37
2018-09-22T09:07:51.767Z,65.83
2018-09-22T09:08:52.526Z,65.18
2018-09-22T09:09:52.760Z,65.08
2018-09-22T09:10:53.107Z,65.26
2018-09-22T09:11:53.393Z,64.84
2018-09-22T09:12:53.711Z,65.18
2018-09-22T09:13:53.902Z,65.68
2018-09-22T09:14:54.163Z,65.93
2018-09-22T09:15:54.467Z,65.70
2018-09-22T09:16:54.778Z,66.23
2018-09-22T09:17:55.586Z,66.03
2018-09-22T09:18:55.835Z,66.00
2018-09-22T09:19:56.310Z,65.90
2018-09-22T09:20:56.675Z,65.60
2018-09-22T09:21:55.913Z,66.45
2018-09-22T09:22:57.132Z,66.61
2018-09-22T09:23:57.338Z,66.67
2018-09-22T09:24:57.681Z,66.52
2018-09-22T09:25:58.032Z,66.10
2018-09-22T09:26:06.389Z,66.17
2018-09-22T09:27:07.669Z,66.08
2018-09-22T09:28:08.013Z,65.49
2018-09-22T09:29:08.229Z,65.95
2018-09-22T09:30:08.463Z,64.93
2018-09-22T09:31:08.670Z,65.02
2018-09-22T09:32:08.887Z,64.64
2018-09-22T09:33:09.121Z,63.70
2018-09-22T09:34:10.444Z,63.51
2018-09-22T09:35:09.768Z,63.94
2018-09-22T09:36:10.053Z,63.83
2018-09-22T09:37:10.298Z,63.65
2018-09-22T09:38:10.613Z,62.98
2018-09-22T09:39:10.832Z,63.41
2018-09-22T09:40:11.361Z,62.49
2018-09-22T09:41:11.595Z,62.62
2018-09-22T09:42:11.839Z,62.41
2018-09-22T09:43:12.115Z,62.10
2018-09-22T09:44:11.449Z,62.50
2018-09-22T09:45:12.663Z,61.64
2018-09-22T09:46:12.748Z,61.54
2018-09-22T09:47:13.007Z,61.42
2018-09-22T09:48:13.204Z,61.16
2018-09-22T09:49:13.490Z,60.78
2018-09-22T09:50:13.727Z,60.73
2018-09-22T09:51:14.212Z,61.09
2018-09-22T09:52:14.445Z,60.63
2018-09-22T09:53:14.748Z,59.91
2018-09-22T09:54:15.127Z,59.80
2018-09-22T09:55:15.573Z,60.28
2018-09-22T09:56:15.846Z,60.08
2018-09-22T09:57:16.060Z,59.96
2018-09-22T09:58:16.315Z,59.83
2018-09-22T09:59:16.651Z,59.51
2018-09-22T10:00:16.875Z,59.84
2018-09-22T10:01:17.171Z,60.00
2018-09-22T10:02:17.381Z,60.56
2018-09-22T10:03:17.864Z,60.00
2018-09-22T10:04:18.063Z,59.96
2018-09-22T10:05:18.294Z,59.60
2018-09-22T10:06:18.769Z,59.58
2018-09-22T10:07:19.106Z,59.46
2018-09-22T10:08:19.285Z,59.11
2018-09-22T10:09:19.527Z,59.10
2018-09-22T10:10:19.792Z,58.57
2018-09-22T10:11:20.004Z,58.82
2018-09-22T10:11:28.332Z,58.85
2018-09-22T10:12:29.566Z,58.90
2018-09-22T10:13:29.752Z,59.26
2018-09-22T10:14:29.907Z,59.29
2018-09-22T10:15:30.248Z,59.83
2018-09-22T10:16:30.514Z,60.06
2018-09-22T10:17:30.726Z,60.15
2018-09-22T10:18:30.982Z,59.99
2018-09-22T10:19:31.304Z,59.61
2018-09-22T10:20:31.725Z,59.25
2018-09-22T10:21:30.767Z,59.93
2018-09-22T10:22:32.062Z,59.16
2018-09-22T10:23:32.383Z,59.11
2018-09-22T10:24:32.754Z,58.71
2018-09-22T10:25:33.090Z,58.73
2018-09-22T10:26:33.334Z,59.09
2018-09-22T10:27:33.617Z,59.56
2018-09-22T10:28:33.928Z,58.75
2018-09-22T10:29:33.227Z,58.17
2018-09-22T10:30:34.748Z,57.99
2018-09-22T10:31:35.208Z,57.67
2018-09-22T10:32:35.435Z,57.78
2018-09-22T10:33:35.759Z,57.28
2018-09-22T10:34:36.050Z,57.43
2018-09-22T10:35:36.297Z,56.84
2018-09-22T10:36:37.564Z,57.60
2018-09-22T10:37:37.525Z,58.54
2018-09-22T10:38:37.874Z,60.12
2018-09-22T10:39:38.182Z,59.99
2018-09-22T10:40:37.427Z,60.03
2018-09-22T10:41:38.670Z,59.83
2018-09-22T10:42:38.881Z,60.35
2018-09-22T10:43:39.398Z,60.01
2018-09-22T10:44:39.553Z,59.51
2018-09-22T10:45:39.811Z,59.38
2018-09-22T10:46:40.178Z,59.10
2018-09-22T10:47:40.543Z,59.75
2018-09-22T10:48:40.707Z,60.31
2018-09-22T10:49:40.930Z,59.89
2018-09-22T10:50:41.177Z,59.62
2018-09-22T10:51:41.464Z,60.41
2018-09-22T10:52:41.687Z,60.53
2018-09-22T10:53:41.193Z,60.58
2018-09-22T10:54:42.448Z,60.63
2018-09-22T10:55:42.722Z,60.65
2018-09-22T10:56:42.923Z,61.02
2018-09-22T10:57:43.049Z,61.18
2018-09-22T10:58:43.301Z,60.42
2018-09-22T10:58:58.416Z,60.01
2018-09-22T10:59:58.627Z,60.14
2018-09-22T11:00:58.974Z,60.44
2018-09-22T11:01:59.296Z,60.71
2018-09-22T11:02:59.605Z,60.87
2018-09-22T11:03:59.911Z,60.64
2018-09-22T11:05:00.127Z,61.31
2018-09-22T11:06:00.337Z,61.13
2018-09-22T11:07:00.710Z,60.50
2018-09-22T11:08:00.909Z,60.45
2018-09-22T11:09:01.120Z,60.78
2018-09-22T11:10:01.359Z,60.95
2018-09-22T11:11:01.652Z,60.81
2018-09-22T11:12:01.876Z,61.44
2018-09-22T11:13:02.118Z,61.20
2018-09-22T11:14:02.292Z,61.00
2018-09-22T11:15:02.582Z,60.76
2018-09-22T11:16:02.786Z,60.19
2018-09-22T11:17:03.038Z,60.33
2018-09-22T11:18:03.376Z,60.21
2018-09-22T11:19:03.610Z,59.54
2018-09-22T11:20:03.960Z,59.38
2018-09-22T11:21:04.684Z,60.10
2018-09-22T11:22:04.876Z,59.49
2018-09-22T11:23:05.131Z,59.48
2018-09-22T11:24:05.713Z,58.00
2018-09-22T11:25:05.745Z,58.42
2018-09-22T11:26:06.024Z,58.40
2018-09-22T11:27:06.320Z,58.52
2018-09-22T11:28:06.539Z,58.40
2018-09-22T11:29:06.807Z,59.11
2018-09-22T11:30:07.763Z,59.55
2018-09-22T11:31:08.091Z,59.57
2018-09-22T11:32:08.341Z,59.73
2018-09-22T11:33:08.598Z,60.07
2018-09-22T11:34:08.959Z,60.03
2018-09-22T11:35:08.165Z,60.22
2018-09-22T11:36:09.505Z,59.65
2018-09-22T11:37:09.803Z,58.63
2018-09-22T11:38:10.079Z,59.68
2018-09-22T11:39:09.444Z,59.35
2018-09-22T11:40:11.055Z,58.96
2018-09-22T11:41:11.442Z,59.31
2018-09-22T11:42:11.697Z,58.92
2018-09-22T11:43:12.396Z,58.69
2018-09-22T11:43:26.463Z,58.99
2018-09-22T11:44:27.684Z,59.02
2018-09-22T11:45:28.078Z,59.23
2018-09-22T11:46:28.436Z,58.69
2018-09-22T11:47:28.688Z,58.72
2018-09-22T11:48:28.925Z,58.48
2018-09-22T11:49:29.234Z,57.80
2018-09-22T11:50:29.509Z,58.34
2018-09-22T11:51:29.908Z,58.05
2018-09-22T11:52:30.169Z,58.16
2018-09-22T11:53:30.495Z,58.66
2018-09-22T11:54:30.710Z,58.49
2018-09-22T11:55:31.023Z,58.57
2018-09-22T11:56:31.339Z,58.75
2018-09-22T11:57:30.608Z,58.52
2018-09-22T11:58:31.805Z,58.03
2018-09-22T11:59:32.000Z,58.23
2018-09-22T12:00:32.215Z,58.97
2018-09-22T12:01:32.464Z,58.56
2018-09-22T12:02:32.599Z,58.92
2018-09-22T12:03:32.815Z,58.50
2018-09-22T12:04:33.072Z,58.50
2018-09-22T12:05:33.465Z,58.96
2018-09-22T12:06:33.883Z,59.13
2018-09-22T12:07:32.986Z,58.60
2018-09-22T12:08:34.142Z,59.18
2018-09-22T12:09:34.317Z,58.86
2018-09-22T12:10:34.588Z,59.25
2018-09-22T12:11:35.037Z,58.49
2018-09-22T12:12:35.200Z,58.73
2018-09-22T12:13:35.351Z,58.90
2018-09-22T12:14:35.742Z,58.88
2018-09-22T12:15:35.981Z,59.17
2018-09-22T12:16:36.191Z,59.22
2018-09-22T12:17:36.411Z,59.32
2018-09-22T12:18:36.570Z,59.06
2018-09-22T12:19:37.419Z,58.40
2018-09-22T12:20:37.633Z,57.95
2018-09-22T12:21:37.809Z,58.10
2018-09-22T12:22:38.003Z,58.57
2018-09-22T12:23:38.396Z,58.45
2018-09-22T12:24:38.703Z,58.56
2018-09-22T12:25:38.949Z,58.49
2018-09-22T12:26:39.259Z,58.53
2018-09-22T12:27:39.478Z,58.32
2018-09-22T12:28:39.732Z,58.49
2018-09-22T12:28:47.780Z,58.92
2018-09-22T12:29:48.969Z,58.89
2018-09-22T12:30:49.146Z,58.40
2018-09-22T12:31:49.528Z,58.87
2018-09-22T12:32:49.977Z,58.63
2018-09-22T12:33:50.244Z,58.67
2018-09-22T12:34:50.581Z,58.21
2018-09-22T12:35:50.878Z,58.27
2018-09-22T12:36:51.248Z,58.25
2018-09-22T12:37:51.517Z,58.62
2018-09-22T12:38:51.844Z,58.83
2018-09-22T12:39:52.103Z,59.20
2018-09-22T12:40:52.335Z,59.56
2018-09-22T12:41:52.641Z,58.49